Max Planck — ELZY8 — position and weather

sailwx.info

Track history (hours):
 
Tides and Currents Weather Stations Pressure Air Temp Water Temp Dewpoint Dewpoint Depression Visibility Wind Speed Wind Dir Waves Ship Positions

Max Planck

Last reported at 2014-Jul-06 02:33 UTC. Time now 2014-Jul-23 18:04 UTC.
Position N 34°51' E 139°36'.
Warning: this ship's position is 17 days out of date.

Length 99.9 m; beam 16.2 m; draft 6.8 m.

Type: Ship. MMSI: 636091773.

Date/timePositionNaut miles runAvg speedWind from/ knotsBaromVisibWave heightAir tempDewpointWater temp
2014-Jul-06 02:33N 34°51' E 139°36'1212.2
2014-Jul-06 01:33N 35°03' E 139°40'1212.3
2014-Jul-06 00:33N 35°14' E 139°46'1111.4
2014-Jul-05 23:33N 35°26' E 139°45'6 0.4
2014-Jul-05 08:33N 35°31' E 139°46'5 4.7
2014-Jul-05 07:33N 35°27' E 139°44'6 6.3
2014-Jul-05 06:33N 35°20' E 139°45'1010.0
2014-Jul-05 05:33N 35°10' E 139°46'1111.3
2014-Jul-05 04:33N 34°60' E 139°42'1111.2
2014-Jul-05 03:33N 34°49' E 139°36'  
Track history (hours):
 
Tides and Currents Weather Stations Pressure Air Temp Water Temp Dewpoint Dewpoint Depression Visibility Wind Speed Wind Dir Waves Ship Positions

Max Planck

Last reported at 2014-Jul-06 02:33 UTC. Time now 2014-Jul-23 18:04 UTC.
Position N 34°51' E 139°36'.
Warning: this ship's position is 17 days out of date.

Length 99.9 m; beam 16.2 m; draft 6.8 m.

Type: Ship. MMSI: 636091773.

Date/timePositionNaut miles runAvg speedWind from/ knotsBaromVisibWave heightAir tempDewpointWater temp
2014-Jul-06 02:33N 34°51' E 139°36'1212.2
2014-Jul-06 01:33N 35°03' E 139°40'1212.3
2014-Jul-06 00:33N 35°14' E 139°46'1111.4
2014-Jul-05 23:33N 35°26' E 139°45'6 0.4
2014-Jul-05 08:33N 35°31' E 139°46'5 4.7
2014-Jul-05 07:33N 35°27' E 139°44'6 6.3
2014-Jul-05 06:33N 35°20' E 139°45'1010.0
2014-Jul-05 05:33N 35°10' E 139°46'1111.3
2014-Jul-05 04:33N 34°60' E 139°42'1111.2
2014-Jul-05 03:33N 34°49' E 139°36'  

Dump ship's entire track history